Time;durP1;ratioP1;P1;durP2;ratioP2;P2;SDS_P1;SDS_P2;PMS_P1;PMS_P2;Temp;Humidity;BMP_temperature;BMP_pressure;BME280_temperature;BME280_humidity;BME280_pressure;Samples;Min_cycle;Max_cycle;Signal;HPM_P1;HPM_P2
2022/09/21 00:01:22;;;;;;;5.60;3.65;;;8.90;99.90;;;;;;5041022;28;20706;-64
2022/09/21 00:03:56;;;;;;;4.10;3.20;;;8.40;99.90;;;;;;5038810;28;20185;-65
2022/09/21 00:06:24;;;;;;;3.67;3.05;;;8.90;99.90;;;;;;5041562;28;20209;-67
2022/09/21 00:08:50;;;;;;;3.65;3.17;;;8.20;99.90;;;;;;5036834;28;20193;-66
2022/09/21 00:11:23;;;;;;;3.33;3.00;;;8.60;99.90;;;;;;5044200;28;20488;-66
2022/09/21 00:13:56;;;;;;;3.53;3.20;;;8.80;99.90;;;;;;5044459;28;20662;-65
2022/09/21 00:16:22;;;;;;;4.13;3.22;;;8.60;99.90;;;;;;5040063;28;20905;-66
2022/09/21 00:18:48;;;;;;;3.60;2.97;;;8.50;99.90;;;;;;5039469;28;20273;-67
2022/09/21 00:21:15;;;;;;;3.30;2.93;;;8.80;99.90;;;;;;5043442;28;20261;-66
2022/09/21 00:23:41;;;;;;;4.05;3.13;;;8.50;99.90;;;;;;5039096;28;20195;-66
2022/09/21 00:26:08;;;;;;;4.65;3.35;;;8.60;99.90;;;;;;5052872;28;20210;-66
2022/09/21 00:28:34;;;;;;;3.50;3.17;;;8.80;99.90;;;;;;5045884;28;20182;-66
2022/09/21 00:31:05;;;;;;;3.88;3.47;;;8.40;99.90;;;;;;5044510;28;20264;-66
2022/09/21 00:33:31;;;;;;;3.42;3.15;;;8.40;99.90;;;;;;5043731;28;20190;-66
2022/09/21 00:36:05;;;;;;;5.38;3.40;;;8.40;99.90;;;;;;5047090;28;20237;-66
2022/09/21 00:38:31;;;;;;;4.63;3.30;;;8.60;99.90;;;;;;5045670;28;20267;-66
2022/09/21 00:40:57;;;;;;;5.50;3.60;;;8.50;99.90;;;;;;5048298;28;20658;-66
2022/09/21 00:43:22;;;;;;;4.23;3.23;;;8.60;99.90;;;;;;5051230;28;20256;-66
2022/09/21 00:45:50;;;;;;;3.87;3.47;;;8.40;99.90;;;;;;5042279;28;20221;-66
2022/09/21 00:48:16;;;;;;;3.63;3.33;;;8.30;99.90;;;;;;5051700;28;20197;-66
2022/09/21 00:50:48;;;;;;;4.30;3.90;;;8.40;99.90;;;;;;5043003;28;20277;-66
2022/09/21 00:53:14;;;;;;;4.72;4.22;;;8.30;99.90;;;;;;5043243;28;20505;-66
2022/09/21 00:55:45;;;;;;;3.85;3.55;;;8.40;99.90;;;;;;5052176;28;20709;-66
2022/09/21 00:58:16;;;;;;;7.63;3.80;;;8.40;99.90;;;;;;5048233;28;20524;-66
2022/09/21 01:00:42;;;;;;;3.65;3.35;;;7.70;99.90;;;;;;5042508;28;20194;-66
2022/09/21 01:03:09;;;;;;;4.43;3.27;;;7.80;99.90;;;;;;5050315;28;20323;-66
2022/09/21 01:05:35;;;;;;;3.35;3.05;;;8.00;99.90;;;;;;5043080;28;20223;-66
2022/09/21 01:08:03;;;;;;;3.27;2.97;;;8.10;99.90;;;;;;5041728;28;20303;-66
2022/09/21 01:10:34;;;;;;;4.50;3.30;;;8.30;99.90;;;;;;5038814;28;20190;-68
2022/09/21 01:13:22;;;;;;;3.80;3.45;;;8.40;99.90;;;;;;5042223;28;20188;-66
2022/09/21 01:16:11;;;;;;;3.28;2.97;;;8.40;99.90;;;;;;5045811;28;20209;-66
2022/09/21 01:19:13;;;;;;;3.60;3.00;;;8.20;99.90;;;;;;5047808;28;20226;-66
2022/09/21 01:21:52;;;;;;;5.60;3.33;;;8.40;99.90;;;;;;5028929;28;20283;-66
2022/09/21 01:24:53;;;;;;;3.55;3.25;;;8.50;99.90;;;;;;5046023;28;20213;-66
2022/09/21 01:27:40;;;;;;;3.33;3.03;;;8.10;99.90;;;;;;5041185;28;20245;-66
2022/09/21 01:30:16;;;;;;;3.20;2.95;;;8.10;99.90;;;;;;5044806;28;20440;-67
2022/09/21 01:33:04;;;;;;;4.40;3.40;;;8.20;99.90;;;;;;5044980;28;20236;-66
2022/09/21 01:35:38;;;;;;;4.97;3.80;;;7.40;99.90;;;;;;5045481;28;20785;-65
2022/09/21 01:38:12;;;;;;;3.30;3.00;;;8.10;99.90;;;;;;5043306;28;20267;-66
2022/09/21 01:40:42;;;;;;;4.25;3.20;;;8.10;99.90;;;;;;5047148;28;20189;-65
2022/09/21 01:43:12;;;;;;;4.20;3.30;;;7.60;99.90;;;;;;5046826;28;20205;-66
2022/09/21 01:45:42;;;;;;;3.03;2.72;;;8.00;99.90;;;;;;5050122;28;20201;-68
2022/09/21 01:48:08;;;;;;;4.13;3.33;;;8.10;99.90;;;;;;5048567;28;20284;-66
2022/09/21 01:50:40;;;;;;;3.43;3.13;;;7.60;99.90;;;;;;5049442;28;20789;-66
2022/09/21 01:53:21;;;;;;;5.15;3.10;;;8.10;99.90;;;;;;5037772;28;20182;-66
2022/09/21 01:56:00;;;;;;;3.95;3.40;;;7.80;99.90;;;;;;5045422;28;20683;-66
2022/09/21 01:58:32;;;;;;;4.22;3.58;;;7.70;99.90;;;;;;5048964;28;20208;-66
2022/09/21 02:00:58;;;;;;;3.67;3.38;;;7.80;99.90;;;;;;5044471;28;20743;-66
2022/09/21 02:03:35;;;;;;;3.85;3.45;;;7.70;99.90;;;;;;5047101;28;20193;-67
2022/09/21 02:06:01;;;;;;;7.38;3.13;;;7.90;99.90;;;;;;5041048;28;20219;-66
2022/09/21 02:08:31;;;;;;;7.05;3.70;;;7.60;99.90;;;;;;5045831;28;20279;-66
2022/09/21 02:10:59;;;;;;;3.70;3.40;;;8.10;99.90;;;;;;5043246;28;20323;-67
2022/09/21 02:13:26;;;;;;;3.47;3.17;;;7.80;99.90;;;;;;5043083;28;20542;-67
2022/09/21 02:16:07;;;;;;;3.58;3.28;;;7.20;99.90;;;;;;5044946;28;20201;-66
2022/09/21 02:19:10;;;;;;;3.20;2.85;;;7.50;99.90;;;;;;5039849;28;20518;-66
2022/09/21 02:21:50;;;;;;;6.00;3.70;;;7.40;99.90;;;;;;5045719;28;20179;-66
2022/09/21 02:24:28;;;;;;;4.20;3.03;;;7.50;99.90;;;;;;5044228;28;20190;-64
2022/09/21 02:27:06;;;;;;;3.40;3.10;;;7.60;99.90;;;;;;5051513;28;20205;-66
2022/09/21 02:29:44;;;;;;;3.60;3.30;;;7.50;99.90;;;;;;5047308;28;20185;-67
2022/09/21 02:32:15;;;;;;;5.35;3.63;;;7.60;99.90;;;;;;5042836;28;20639;-66
2022/09/21 02:34:48;;;;;;;3.40;3.10;;;7.40;99.90;;;;;;5039598;28;20710;-66
2022/09/21 02:37:27;;;;;;;4.72;3.83;;;7.00;99.90;;;;;;5044278;28;20186;-63
2022/09/21 02:40:02;;;;;;;3.50;3.17;;;7.30;99.90;;;;;;5050210;28;20200;-66
2022/09/21 02:42:36;;;;;;;4.13;3.22;;;7.40;99.90;;;;;;5045101;28;20192;-66
2022/09/21 02:45:08;;;;;;;4.20;3.20;;;7.40;99.90;;;;;;5047268;28;20206;-66
2022/09/21 02:47:41;;;;;;;4.95;3.45;;;7.50;99.90;;;;;;5040878;28;20470;-63
2022/09/21 02:50:14;;;;;;;5.20;3.95;;;7.40;99.90;;;;;;5039262;28;20181;-63
2022/09/21 02:52:42;;;;;;;4.63;4.10;;;6.70;99.90;;;;;;5035210;28;20272;-66
2022/09/21 02:55:09;;;;;;;4.85;3.63;;;7.20;99.90;;;;;;5043036;28;20205;-67
2022/09/21 02:57:36;;;;;;;4.50;4.05;;;7.20;99.90;;;;;;5031214;28;20186;-68
2022/09/21 03:00:04;;;;;;;3.58;3.28;;;6.80;99.90;;;;;;5041284;28;20471;-66
2022/09/21 03:02:41;;;;;;;4.88;3.30;;;7.40;99.90;;;;;;5040655;28;20240;-66
2022/09/21 03:05:08;;;;;;;5.78;3.60;;;7.60;99.90;;;;;;5037798;28;20205;-66
2022/09/21 03:07:34;;;;;;;6.35;3.30;;;7.30;99.90;;;;;;5044692;28;20216;-66
2022/09/21 03:10:00;;;;;;;6.90;3.55;;;7.50;99.90;;;;;;5040480;28;20182;-67
2022/09/21 03:12:26;;;;;;;3.80;3.50;;;6.80;99.90;;;;;;5038599;28;20186;-67
2022/09/21 03:14:52;;;;;;;5.00;2.90;;;7.20;99.90;;;;;;5041809;28;20256;-67
2022/09/21 03:17:18;;;;;;;5.30;3.63;;;7.30;99.90;;;;;;5039218;28;20410;-66
2022/09/21 03:19:44;;;;;;;4.13;3.72;;;7.10;99.90;;;;;;5041852;28;20716;-66
2022/09/21 03:22:09;;;;;;;5.40;3.30;;;7.20;99.90;;;;;;5039954;28;20194;-66
2022/09/21 03:24:47;;;;;;;3.83;3.20;;;6.80;99.90;;;;;;5042887;28;20255;-66
2022/09/21 03:27:20;;;;;;;7.60;3.65;;;7.40;99.90;;;;;;5042045;28;20205;-66
2022/09/21 03:29:46;;;;;;;3.60;3.30;;;7.10;99.90;;;;;;5041687;28;20269;-67
2022/09/21 03:32:13;;;;;;;4.20;3.42;;;7.10;99.90;;;;;;5043247;28;20207;-66
2022/09/21 03:34:39;;;;;;;4.03;3.60;;;7.10;99.90;;;;;;5047003;28;20221;-67
2022/09/21 03:37:07;;;;;;;4.40;3.77;;;7.20;99.90;;;;;;5036801;28;20218;-66
2022/09/21 03:39:33;;;;;;;5.15;3.85;;;6.80;99.90;;;;;;5043352;28;20460;-67
2022/09/21 03:41:59;;;;;;;5.43;4.10;;;7.10;99.90;;;;;;5039420;28;20264;-66
2022/09/21 03:44:25;;;;;;;6.03;4.50;;;7.30;99.90;;;;;;5038784;28;20842;-66
2022/09/21 03:46:51;;;;;;;8.55;4.90;;;6.60;99.90;;;;;;5042059;28;20267;-65
2022/09/21 03:49:17;;;;;;;5.57;4.20;;;7.10;99.90;;;;;;5044420;28;20227;-65
2022/09/21 03:51:43;;;;;;;7.23;4.37;;;7.10;99.90;;;;;;5045156;28;20638;-66
2022/09/21 03:54:09;;;;;;;5.97;4.67;;;7.10;99.90;;;;;;5050205;28;20444;-66
2022/09/21 03:56:35;;;;;;;5.73;4.30;;;6.70;99.90;;;;;;5042172;28;20444;-67
2022/09/21 03:59:00;;;;;;;4.90;4.03;;;6.90;99.90;;;;;;5048203;28;20429;-65
2022/09/21 04:01:26;;;;;;;10.00;5.07;;;6.70;99.90;;;;;;5046048;28;21145;-65
2022/09/21 04:03:52;;;;;;;5.80;4.43;;;7.20;99.90;;;;;;5051135;28;20252;-66
2022/09/21 04:06:18;;;;;;;6.50;4.90;;;7.30;99.90;;;;;;5048361;28;20724;-66
2022/09/21 04:08:43;;;;;;;5.60;4.25;;;6.80;99.90;;;;;;5047834;28;20189;-66
2022/09/21 04:11:10;;;;;;;5.30;4.57;;;7.30;99.90;;;;;;5035788;28;20651;-68
2022/09/21 04:13:36;;;;;;;6.80;5.15;;;7.50;99.90;;;;;;5050456;28;20241;-66
2022/09/21 04:16:02;;;;;;;5.87;4.80;;;7.30;99.90;;;;;;5046172;28;20308;-66
2022/09/21 04:18:27;;;;;;;6.73;5.53;;;7.10;99.90;;;;;;5038380;28;21766;-66
2022/09/21 04:20:53;;;;;;;7.37;4.70;;;6.60;99.90;;;;;;5045871;28;20301;-66
2022/09/21 04:23:19;;;;;;;9.33;5.60;;;7.20;99.90;;;;;;5047684;28;20210;-66
2022/09/21 04:25:47;;;;;;;6.75;5.38;;;7.00;99.90;;;;;;5043735;28;20198;-66
2022/09/21 04:28:13;;;;;;;9.70;7.22;;;6.70;99.90;;;;;;5042645;28;20552;-66
2022/09/21 04:30:39;;;;;;;6.70;5.83;;;7.00;99.90;;;;;;5037660;28;20190;-66
2022/09/21 04:33:05;;;;;;;6.27;5.60;;;6.90;99.90;;;;;;5051646;28;20169;-66
2022/09/21 04:35:30;;;;;;;10.15;5.85;;;7.10;99.90;;;;;;5044157;28;20842;-66
2022/09/21 04:37:56;;;;;;;8.77;5.67;;;6.50;99.90;;;;;;5047167;28;20280;-66
2022/09/21 04:40:22;;;;;;;5.70;5.17;;;7.20;99.90;;;;;;5042516;28;20212;-66
2022/09/21 04:42:53;;;;;;;7.57;5.70;;;6.60;99.90;;;;;;5045915;28;20208;-66
2022/09/21 04:45:21;;;;;;;7.35;5.10;;;6.50;99.90;;;;;;5044464;28;20868;-67
2022/09/21 04:47:46;;;;;;;5.43;4.75;;;7.10;99.90;;;;;;5043335;28;20194;-65
2022/09/21 04:50:12;;;;;;;8.07;5.57;;;6.50;99.90;;;;;;5043732;28;20617;-66
2022/09/21 04:52:38;;;;;;;8.20;5.88;;;6.40;99.90;;;;;;5045861;28;20185;-66
2022/09/21 04:55:05;;;;;;;7.35;5.05;;;7.00;99.90;;;;;;5048033;28;20204;-65
2022/09/21 04:57:30;;;;;;;7.05;5.00;;;7.10;99.90;;;;;;5048274;28;20194;-65
2022/09/21 04:59:56;;;;;;;5.33;4.80;;;7.10;99.90;;;;;;5048718;28;20200;-65
2022/09/21 05:02:21;;;;;;;5.50;5.00;;;7.20;99.90;;;;;;5045371;28;20565;-65
2022/09/21 05:04:47;;;;;;;5.73;5.13;;;7.10;99.90;;;;;;5036634;28;20225;-66
2022/09/21 05:07:12;;;;;;;7.17;5.70;;;7.20;99.90;;;;;;5048129;28;20662;-66
2022/09/21 05:10:20;;;;;;;5.83;5.00;;;6.70;99.90;;;;;;5046063;28;20704;-66
2022/09/21 05:12:27;;;;;;;6.55;5.25;;;6.80;99.90;;;;;;5041266;28;20190;-66
2022/09/21 05:14:54;;;;;;;7.87;5.47;;;7.50;99.90;;;;;;5045433;28;20566;-66
2022/09/21 05:17:21;;;;;;;6.80;6.10;;;6.90;99.90;;;;;;5048573;28;20181;-66
2022/09/21 05:19:47;;;;;;;6.22;5.50;;;7.10;99.90;;;;;;5046461;28;20600;-65
2022/09/21 05:22:13;;;;;;;5.68;5.03;;;6.90;99.90;;;;;;5045057;28;20597;-65
2022/09/21 05:24:38;;;;;;;9.20;6.40;;;6.70;99.90;;;;;;5050061;28;20205;-66
2022/09/21 05:27:04;;;;;;;8.40;6.90;;;7.00;99.90;;;;;;5056793;28;20650;-66
2022/09/21 05:29:30;;;;;;;9.13;7.37;;;7.00;99.90;;;;;;5045321;28;20763;-66
2022/09/21 05:32:26;;;;;;;8.20;7.33;;;7.10;99.90;;;;;;5044401;28;20378;-65
2022/09/21 05:35:10;;;;;;;10.43;7.00;;;7.10;99.90;;;;;;5043583;28;20548;-65
2022/09/21 05:38:10;;;;;;;15.55;7.50;;;7.10;99.90;;;;;;5041674;28;20189;-66
2022/09/21 05:40:36;;;;;;;7.75;6.65;;;7.20;99.90;;;;;;5043695;28;20202;-64
2022/09/21 05:43:02;;;;;;;7.90;7.00;;;7.20;99.90;;;;;;5049827;28;20508;-64
2022/09/21 05:45:28;;;;;;;8.17;6.33;;;7.30;99.90;;;;;;5038986;28;20574;-64
2022/09/21 05:48:08;;;;;;;10.52;7.10;;;6.90;99.90;;;;;;5039883;28;20439;-60
2022/09/21 05:50:43;;;;;;;13.88;7.38;;;7.30;99.90;;;;;;5058805;28;20193;-57
2022/09/21 05:53:16;;;;;;;8.55;7.05;;;7.30;99.90;;;;;;5041484;28;20289;-57
2022/09/21 05:56:02;;;;;;;12.05;7.35;;;7.20;99.90;;;;;;5045664;28;20217;-59
2022/09/21 05:58:34;;;;;;;9.55;7.65;;;7.30;99.90;;;;;;5044376;28;20189;-71
2022/09/21 06:01:27;;;;;;;12.18;8.10;;;7.30;99.90;;;;;;5046084;28;20220;-68
2022/09/21 06:03:54;;;;;;;8.82;7.93;;;7.40;99.90;;;;;;5049593;28;20249;-65
2022/09/21 06:06:20;;;;;;;10.07;7.40;;;7.60;99.90;;;;;;5044846;28;20733;-68
2022/09/21 06:08:45;;;;;;;9.33;6.97;;;7.40;99.90;;;;;;5042718;28;20232;-68
2022/09/21 06:11:12;;;;;;;9.77;6.57;;;7.60;99.90;;;;;;5045712;28;20184;-68
2022/09/21 06:13:39;;;;;;;14.18;8.35;;;7.40;99.90;;;;;;5044340;28;20185;-70
2022/09/21 06:16:06;;;;;;;11.10;7.95;;;7.50;99.90;;;;;;5044006;28;20201;-70
2022/09/21 06:18:39;;;;;;;10.73;7.30;;;7.70;99.90;;;;;;5048241;28;20264;-71
2022/09/21 06:21:06;;;;;;;9.30;7.25;;;7.70;99.90;;;;;;5037723;28;20519;-73
2022/09/21 06:23:32;;;;;;;27.85;15.82;;;7.80;99.90;;;;;;5045184;28;20181;-72
2022/09/21 06:25:57;;;;;;;10.73;7.83;;;8.30;99.90;;;;;;5045994;28;20414;-72
2022/09/21 06:28:23;;;;;;;12.13;7.73;;;7.90;99.90;;;;;;5048424;28;20922;-66
2022/09/21 06:30:53;;;;;;;8.20;7.17;;;8.20;99.90;;;;;;5034259;28;20622;-69
2022/09/21 06:33:22;;;;;;;9.25;7.90;;;8.20;99.90;;;;;;5049944;28;20177;-70
2022/09/21 06:36:06;;;;;;;8.40;7.57;;;8.00;99.90;;;;;;5043378;28;20212;-70
2022/09/21 06:38:34;;;;;;;9.25;7.95;;;8.50;99.90;;;;;;5049832;28;20205;-70
2022/09/21 06:41:04;;;;;;;11.27;8.70;;;8.50;99.90;;;;;;5046505;28;20178;-70
2022/09/21 06:43:30;;;;;;;9.65;8.75;;;8.40;99.90;;;;;;5048707;28;20280;-71
2022/09/21 06:45:58;;;;;;;8.20;7.07;;;8.70;99.90;;;;;;5041331;28;20616;-74
2022/09/21 06:48:26;;;;;;;9.70;7.80;;;8.50;99.90;;;;;;5047616;28;20178;-71
2022/09/21 06:50:57;;;;;;;9.65;8.02;;;8.70;99.90;;;;;;5030512;28;20189;-70
2022/09/21 06:53:22;;;;;;;10.73;8.43;;;8.70;99.90;;;;;;5049789;28;20178;-70
2022/09/21 06:55:48;;;;;;;13.73;9.17;;;9.20;99.90;;;;;;5049936;28;20206;-69
2022/09/21 06:58:14;;;;;;;9.27;7.00;;;9.80;99.90;;;;;;5047087;28;20612;-69
2022/09/21 07:00:39;;;;;;;8.77;7.93;;;11.90;99.90;;;;;;5040391;28;20597;-74
2022/09/21 07:03:05;;;;;;;6.87;6.17;;;13.70;99.90;;;;;;5046648;28;20268;-73
2022/09/21 07:05:32;;;;;;;6.97;6.27;;;16.50;98.40;;;;;;5046589;28;20233;-74
2022/09/21 07:07:58;;;;;;;7.28;6.57;;;18.10;90.70;;;;;;5048680;28;20217;-74
2022/09/21 07:10:25;;;;;;;6.72;5.70;;;19.20;86.70;;;;;;5055069;28;20208;-74
2022/09/21 07:12:51;;;;;;;6.90;6.30;;;21.10;80.00;;;;;;5039507;28;20264;-71
2022/09/21 07:15:18;;;;;;;7.13;6.33;;;22.10;74.50;;;;;;5048227;28;20459;-71
2022/09/21 07:17:43;;;;;;;9.33;6.47;;;23.80;70.40;;;;;;5048077;28;20440;-70
2022/09/21 07:20:09;;;;;;;6.73;6.20;;;24.10;63.30;;;;;;5047775;28;20458;-70
2022/09/21 07:22:35;;;;;;;7.97;6.80;;;24.40;62.20;;;;;;5050410;28;20438;-73
2022/09/21 07:25:02;;;;;;;7.20;6.50;;;26.00;60.40;;;;;;5042618;28;20513;-70
2022/09/21 07:27:29;;;;;;;6.30;5.80;;;24.10;57.10;;;;;;5042577;28;21042;-68
2022/09/21 07:29:54;;;;;;;7.07;6.07;;;26.00;58.30;;;;;;5041738;28;20449;-68
2022/09/21 07:32:20;;;;;;;6.83;6.13;;;27.50;54.30;;;;;;5043585;28;20436;-68
2022/09/21 07:34:46;;;;;;;6.33;5.73;;;28.90;52.00;;;;;;5046838;28;20277;-69
2022/09/21 07:37:12;;;;;;;8.30;6.77;;;29.80;49.20;;;;;;5047155;28;20549;-71
2022/09/21 07:39:37;;;;;;;10.50;8.07;;;29.40;48.00;;;;;;5044706;28;20668;-70
2022/09/21 07:42:04;;;;;;;7.07;6.47;;;30.50;47.00;;;;;;5040823;28;20439;-70
2022/09/21 07:44:30;;;;;;;6.57;5.87;;;27.00;47.90;;;;;;5037297;28;20220;-69
2022/09/21 07:46:55;;;;;;;7.10;6.13;;;27.40;50.40;;;;;;5048812;28;20926;-72
2022/09/21 07:49:21;;;;;;;7.90;7.07;;;28.10;49.60;;;;;;5035674;28;20253;-67
2022/09/21 07:51:46;;;;;;;9.17;8.10;;;29.50;46.70;;;;;;5040981;28;20188;-67
2022/09/21 07:54:14;;;;;;;7.53;6.83;;;28.90;47.30;;;;;;5045705;28;20276;-68
2022/09/21 07:56:41;;;;;;;6.47;5.70;;;29.70;45.40;;;;;;5048503;28;20286;-71
2022/09/21 07:59:10;;;;;;;8.17;7.00;;;30.00;44.70;;;;;;5046674;28;20455;-70
2022/09/21 08:01:38;;;;;;;6.03;5.43;;;30.00;45.20;;;;;;5048522;28;20818;-71
2022/09/21 08:04:06;;;;;;;7.00;6.20;;;30.60;44.20;;;;;;5045075;28;20459;-71
2022/09/21 08:06:34;;;;;;;6.23;5.73;;;30.80;43.70;;;;;;5045002;28;21059;-74
2022/09/21 08:09:00;;;;;;;6.83;6.27;;;31.20;43.10;;;;;;5043012;28;20565;-74
2022/09/21 08:11:29;;;;;;;8.73;7.67;;;31.10;42.60;;;;;;5038904;28;20434;-72
2022/09/21 08:13:58;;;;;;;7.27;6.20;;;31.90;41.90;;;;;;5042603;28;20455;-70
2022/09/21 08:16:24;;;;;;;6.97;6.00;;;31.60;41.50;;;;;;5039791;28;20446;-69
2022/09/21 08:18:50;;;;;;;7.80;6.60;;;31.00;42.00;;;;;;5042448;28;20451;-73
2022/09/21 08:21:16;;;;;;;8.67;6.30;;;29.50;43.00;;;;;;5042176;28;20803;-73
2022/09/21 08:23:42;;;;;;;6.50;5.90;;;29.10;44.60;;;;;;5040586;28;20440;-76
2022/09/21 08:26:17;;;;;;;6.17;5.00;;;29.40;44.20;;;;;;5043666;28;20564;-76
2022/09/21 08:28:47;;;;;;;7.23;5.77;;;28.80;44.50;;;;;;5043821;28;20804;-72
2022/09/21 08:31:13;;;;;;;6.03;5.53;;;26.70;47.30;;;;;;5044297;28;20960;-73
2022/09/21 08:33:39;;;;;;;5.90;5.43;;;25.00;49.70;;;;;;5047120;28;20440;-70
2022/09/21 08:36:04;;;;;;;6.53;5.80;;;23.50;52.50;;;;;;5041074;28;20460;-71
2022/09/21 08:38:35;;;;;;;6.60;5.90;;;22.30;55.10;;;;;;5050011;28;20514;-72
2022/09/21 08:41:10;;;;;;;7.07;5.60;;;21.00;57.90;;;;;;5046963;28;20183;-69
2022/09/21 08:43:41;;;;;;;7.53;5.90;;;20.00;60.90;;;;;;5042064;28;20186;-69
2022/09/21 08:46:12;;;;;;;8.02;5.18;;;18.70;66.40;;;;;;5042497;28;20267;-68
2022/09/21 08:48:44;;;;;;;6.78;5.05;;;17.80;71.20;;;;;;5050098;28;20263;-68
2022/09/21 08:51:14;;;;;;;7.68;5.20;;;17.20;75.20;;;;;;5046935;28;20268;-69
2022/09/21 08:53:44;;;;;;;9.18;6.80;;;16.60;78.90;;;;;;5047821;28;20182;-69
2022/09/21 08:56:14;;;;;;;7.28;5.70;;;16.30;82.80;;;;;;5040847;28;20535;-69
2022/09/21 08:58:40;;;;;;;5.55;5.05;;;15.60;86.30;;;;;;5034520;28;20186;-71
2022/09/21 09:01:23;;;;;;;6.55;5.50;;;15.40;89.70;;;;;;5042093;28;20178;-67
2022/09/21 09:03:58;;;;;;;6.25;5.32;;;15.10;91.40;;;;;;5044185;28;20264;-67
2022/09/21 09:06:48;;;;;;;5.55;5.05;;;15.10;91.80;;;;;;5045512;28;20233;-68
2022/09/21 09:09:42;;;;;;;5.57;4.63;;;14.90;92.70;;;;;;5048339;28;20185;-68
2022/09/21 09:12:26;;;;;;;4.90;4.15;;;14.90;92.80;;;;;;5033892;28;20650;-74
2022/09/21 09:15:06;;;;;;;5.97;4.13;;;15.00;93.10;;;;;;5060386;28;20320;-69
2022/09/21 09:17:50;;;;;;;5.93;4.57;;;14.80;93.40;;;;;;5044845;28;20264;-70
2022/09/21 09:20:33;;;;;;;5.45;4.95;;;15.00;94.10;;;;;;5044671;28;20701;-69
2022/09/21 09:23:16;;;;;;;5.28;4.78;;;14.80;93.70;;;;;;5043533;28;20233;-69
2022/09/21 09:25:44;;;;;;;6.68;3.80;;;14.90;94.30;;;;;;5042690;28;20208;-69
2022/09/21 09:28:23;;;;;;;4.40;3.80;;;14.60;94.00;;;;;;5049501;28;20284;-69
2022/09/21 09:30:59;;;;;;;5.18;3.53;;;15.10;94.20;;;;;;5040223;28;20547;-70
2022/09/21 09:33:43;;;;;;;4.50;4.10;;;15.50;93.40;;;;;;5039421;28;20186;-73
2022/09/21 09:36:11;;;;;;;6.80;4.60;;;15.30;93.10;;;;;;5044346;28;20278;-72
2022/09/21 09:38:45;;;;;;;11.27;8.73;;;15.50;93.50;;;;;;5048247;28;20687;-72
2022/09/21 09:41:28;;;;;;;3.70;3.40;;;16.40;92.60;;;;;;5037649;28;20648;-73
2022/09/21 09:44:26;;;;;;;4.18;2.75;;;17.60;89.90;;;;;;5044918;28;20177;-72
2022/09/21 09:47:10;;;;;;;4.25;3.08;;;19.30;84.50;;;;;;5046343;28;20248;-73
2022/09/21 09:50:05;;;;;;;4.73;3.30;;;21.50;78.20;;;;;;5045890;28;20912;-72
2022/09/21 09:52:32;;;;;;;3.17;2.60;;;24.20;68.20;;;;;;5044290;28;20513;-71
2022/09/21 09:54:59;;;;;;;5.07;3.10;;;25.80;58.90;;;;;;5046133;28;20940;-72
2022/09/21 09:57:32;;;;;;;4.23;2.77;;;27.40;54.70;;;;;;5048632;28;20793;-69
2022/09/21 10:00:11;;;;;;;3.43;2.73;;;28.80;52.20;;;;;;5041636;28;21016;-72
2022/09/21 10:02:55;;;;;;;6.00;4.90;;;29.10;48.80;;;;;;5043445;28;20962;-67
2022/09/21 10:05:32;;;;;;;3.33;3.03;;;27.30;49.00;;;;;;5041189;28;20908;-68
2022/09/21 10:07:57;;;;;;;3.33;2.43;;;26.00;51.30;;;;;;5042405;28;20534;-68
2022/09/21 10:10:31;;;;;;;2.80;2.20;;;25.60;52.60;;;;;;5043579;28;20982;-68
2022/09/21 10:13:11;;;;;;;2.37;2.10;;;24.40;53.90;;;;;;5043178;28;20175;-68
2022/09/21 10:15:48;;;;;;;2.80;2.00;;;23.50;55.90;;;;;;5046812;28;20451;-64
2022/09/21 10:18:22;;;;;;;2.70;2.37;;;22.60;57.10;;;;;;5037882;28;20440;-64
2022/09/21 10:20:54;;;;;;;4.45;4.05;;;21.50;59.40;;;;;;5046643;28;20436;-63
2022/09/21 10:23:20;;;;;;;3.60;2.17;;;20.90;61.70;;;;;;5045020;28;20185;-64
2022/09/21 10:25:53;;;;;;;2.25;2.05;;;20.20;63.90;;;;;;5034335;28;20218;-69
2022/09/21 10:28:22;;;;;;;2.58;1.90;;;20.00;66.00;;;;;;5045858;28;22027;-69
2022/09/21 10:30:48;;;;;;;3.03;2.15;;;19.90;66.20;;;;;;5046792;28;20178;-67
2022/09/21 10:33:21;;;;;;;2.50;2.10;;;19.80;66.20;;;;;;5039488;28;20234;-67
2022/09/21 10:35:51;;;;;;;4.10;3.10;;;19.20;66.80;;;;;;5045604;28;20623;-67
2022/09/21 10:38:28;;;;;;;3.47;2.85;;;19.00;68.70;;;;;;5040509;28;20199;-68
2022/09/21 10:40:54;;;;;;;2.40;1.90;;;18.60;70.70;;;;;;5033574;28;20282;-68
2022/09/21 10:43:24;;;;;;;2.50;1.90;;;18.60;71.70;;;;;;5045673;28;20631;-68
2022/09/21 10:45:55;;;;;;;4.30;2.03;;;18.50;70.40;;;;;;5043522;28;20361;-69
2022/09/21 10:48:23;;;;;;;2.70;2.05;;;18.40;71.60;;;;;;5042707;28;20213;-67
2022/09/21 10:50:51;;;;;;;4.03;1.88;;;18.50;72.60;;;;;;5045564;28;20247;-67
2022/09/21 10:53:29;;;;;;;3.50;2.03;;;17.90;72.80;;;;;;5044618;28;20185;-67
2022/09/21 10:56:00;;;;;;;1.92;1.10;;;17.70;73.10;;;;;;5045023;28;20208;-67
2022/09/21 10:58:27;;;;;;;1.80;1.40;;;18.10;72.00;;;;;;5047633;28;20190;-74
2022/09/21 11:00:54;;;;;;;2.63;1.20;;;19.00;70.10;;;;;;5049827;28;20238;-76
2022/09/21 11:03:29;;;;;;;1.70;1.50;;;19.80;65.60;;;;;;5049431;28;20197;-77
2022/09/21 11:06:13;;;;;;;1.30;1.20;;;19.70;65.00;;;;;;5043039;28;20299;-77
2022/09/21 11:08:53;;;;;;;1.38;1.05;;;19.50;66.20;;;;;;5039385;28;20186;-75
2022/09/21 11:11:28;;;;;;;1.95;1.40;;;19.20;65.30;;;;;;5045352;28;20182;-75
2022/09/21 11:14:13;;;;;;;2.72;1.45;;;18.90;67.20;;;;;;5039365;28;20178;-75
2022/09/21 11:16:52;;;;;;;2.17;1.25;;;18.60;68.60;;;;;;5048631;28;20189;-75
2022/09/21 11:19:36;;;;;;;4.85;3.80;;;18.70;67.90;;;;;;5043234;28;20196;-74
2022/09/21 11:22:19;;;;;;;2.03;1.70;;;18.70;68.20;;;;;;5043370;28;20197;-74
2022/09/21 11:24:48;;;;;;;1.42;1.17;;;18.50;66.00;;;;;;5047616;28;20209;-74
2022/09/21 11:27:28;;;;;;;1.73;1.40;;;18.60;67.90;;;;;;5028872;28;20213;-72
2022/09/21 11:30:17;;;;;;;1.20;1.10;;;18.50;68.20;;;;;;5033407;28;20185;-75
2022/09/21 11:32:52;;;;;;;2.17;1.20;;;18.70;67.70;;;;;;5041946;28;20185;-71
2022/09/21 11:35:20;;;;;;;3.60;2.20;;;18.60;68.80;;;;;;5045489;28;20204;-70
2022/09/21 11:37:51;;;;;;;2.70;2.50;;;18.60;71.40;;;;;;5044012;28;20268;-73
2022/09/21 11:40:23;;;;;;;4.05;1.90;;;18.40;72.40;;;;;;5042590;28;20705;-64
2022/09/21 11:43:16;;;;;;;4.68;4.00;;;18.30;73.40;;;;;;5043842;28;20202;-64
2022/09/21 11:46:00;;;;;;;3.08;1.98;;;18.20;73.50;;;;;;5038288;28;20201;-66
2022/09/21 11:48:31;;;;;;;2.38;1.42;;;18.10;71.80;;;;;;5040758;28;20216;-71
2022/09/21 11:51:24;;;;;;;2.00;1.40;;;17.90;72.30;;;;;;5046157;28;20260;-71
2022/09/21 11:54:09;;;;;;;1.85;1.10;;;17.80;74.50;;;;;;5037175;28;20185;-71
2022/09/21 11:57:04;;;;;;;1.50;1.30;;;17.70;71.20;;;;;;5045451;28;20186;-71
2022/09/21 11:59:54;;;;;;;2.13;1.23;;;17.40;71.10;;;;;;5037131;28;20657;-66
2022/09/21 12:02:50;;;;;;;1.55;1.42;;;17.30;72.20;;;;;;5039464;28;20193;-65
2022/09/21 12:05:33;;;;;;;3.70;1.40;;;17.20;72.00;;;;;;5041360;28;20210;-66
2022/09/21 12:08:09;;;;;;;1.30;1.20;;;17.30;73.00;;;;;;5048559;28;20209;-68
2022/09/21 12:10:51;;;;;;;1.27;1.08;;;17.10;72.60;;;;;;5048567;28;20195;-70
2022/09/21 12:13:19;;;;;;;1.65;1.20;;;17.30;72.60;;;;;;5035584;28;20226;-69
2022/09/21 12:16:01;;;;;;;1.60;1.08;;;17.50;71.10;;;;;;5044374;28;20207;-66
2022/09/21 12:18:39;;;;;;;1.75;1.10;;;17.60;70.60;;;;;;5047083;28;20181;-69
2022/09/21 12:21:22;;;;;;;1.15;1.05;;;17.80;69.00;;;;;;5047719;28;20227;-68
2022/09/21 12:24:01;;;;;;;2.13;1.10;;;17.90;65.90;;;;;;5052192;28;20177;-68
2022/09/21 12:26:34;;;;;;;1.10;0.90;;;17.80;66.30;;;;;;5055547;28;20212;-69
2022/09/21 12:29:06;;;;;;;1.10;0.93;;;17.80;66.70;;;;;;5051897;28;20203;-66
2022/09/21 12:31:34;;;;;;;1.13;1.00;;;17.70;67.50;;;;;;5045012;28;20704;-70
2022/09/21 12:34:23;;;;;;;1.10;0.88;;;17.50;66.80;;;;;;5054025;28;20184;-64
2022/09/21 12:37:26;;;;;;;1.15;1.05;;;17.50;67.10;;;;;;5050544;28;20437;-68
2022/09/21 12:40:11;;;;;;;1.00;0.90;;;17.70;66.70;;;;;;5039467;28;20238;-64
2022/09/21 12:42:47;;;;;;;1.20;0.90;;;17.50;67.30;;;;;;5041242;28;20703;-64
2022/09/21 12:45:22;;;;;;;0.95;0.90;;;17.30;66.70;;;;;;5037507;28;20606;-66
2022/09/21 12:48:00;;;;;;;1.17;0.90;;;17.10;67.60;;;;;;5048094;28;20692;-65
2022/09/21 12:50:47;;;;;;;1.35;1.10;;;17.20;68.50;;;;;;5043361;28;20908;-65
2022/09/21 12:53:19;;;;;;;1.65;0.80;;;17.10;68.00;;;;;;5047713;28;20182;-64
2022/09/21 12:56:00;;;;;;;0.80;0.80;;;16.80;68.40;;;;;;5042163;28;20226;-65
2022/09/21 12:58:43;;;;;;;1.40;1.10;;;17.00;67.90;;;;;;5046507;28;20554;-67
2022/09/21 13:01:25;;;;;;;1.80;0.90;;;17.00;68.00;;;;;;5045797;28;20236;-68
2022/09/21 13:04:21;;;;;;;1.20;0.80;;;17.30;67.00;;;;;;5038954;28;20193;-63
2022/09/21 13:07:02;;;;;;;0.80;0.75;;;17.50;65.60;;;;;;5039974;28;20209;-69
2022/09/21 13:09:29;;;;;;;1.23;0.80;;;18.10;66.40;;;;;;5042704;28;20211;-71
2022/09/21 13:12:05;;;;;;;1.63;1.10;;;18.00;65.90;;;;;;5043265;28;20182;-66
2022/09/21 13:14:35;;;;;;;1.50;1.15;;;18.30;65.80;;;;;;5044065;28;20250;-67
2022/09/21 13:17:03;;;;;;;1.42;0.90;;;18.30;64.70;;;;;;5047423;28;20190;-66